createdAt,value
2018-10-02T00:00:37.671Z,6.20
2018-10-02T00:03:49.576Z,6.10
2018-10-02T00:07:01.360Z,6.10
2018-10-02T00:10:13.349Z,6.20
2018-10-02T00:13:30.216Z,6.20
2018-10-02T00:16:42.006Z,6.30
2018-10-02T00:19:53.188Z,6.10
2018-10-02T00:23:04.270Z,6.10
2018-10-02T00:26:16.159Z,6.10
2018-10-02T00:29:28.096Z,6.10
2018-10-02T00:32:40.081Z,6.20
2018-10-02T00:35:51.768Z,6.10
2018-10-02T00:39:03.512Z,6.10
2018-10-02T00:42:15.455Z,6.10
2018-10-02T00:45:27.381Z,6.10
2018-10-02T00:48:38.912Z,6.10
2018-10-02T00:51:50.871Z,6.20
2018-10-02T00:55:01.954Z,6.20
2018-10-02T00:58:12.995Z,6.10
2018-10-02T01:01:24.709Z,6.10
2018-10-02T01:04:37.095Z,6.00
2018-10-02T01:07:48.648Z,6.00
2018-10-02T01:10:59.957Z,6.00
2018-10-02T01:14:12.001Z,5.90
2018-10-02T01:17:23.617Z,5.90
2018-10-02T01:20:34.678Z,6.10
2018-10-02T01:23:45.951Z,6.00
2018-10-02T01:26:57.857Z,6.10
2018-10-02T01:30:08.945Z,6.10
2018-10-02T01:33:20.549Z,6.00
2018-10-02T01:36:31.528Z,6.00
2018-10-02T01:39:43.436Z,5.90
2018-10-02T01:42:55.233Z,6.00
2018-10-02T01:46:07.258Z,5.80
2018-10-02T01:49:18.915Z,5.80
2018-10-02T01:52:30.743Z,5.90
2018-10-02T01:55:42.706Z,5.80
2018-10-02T01:58:53.908Z,5.90
2018-10-02T02:02:05.781Z,5.90
2018-10-02T02:05:17.477Z,5.90
2018-10-02T02:08:29.741Z,5.90
2018-10-02T02:11:41.647Z,5.80
2018-10-02T02:14:52.922Z,5.80
2018-10-02T02:18:05.280Z,5.90
2018-10-02T02:21:16.811Z,5.80
2018-10-02T02:24:28.556Z,5.80
2018-10-02T02:27:39.592Z,5.80
2018-10-02T02:30:51.655Z,5.70
2018-10-02T02:34:03.431Z,5.80
2018-10-02T02:37:15.075Z,5.70
2018-10-02T02:40:27.114Z,5.80
2018-10-02T02:43:38.934Z,5.80
2018-10-02T02:46:50.505Z,5.70
2018-10-02T02:51:07.239Z,5.80
2018-10-02T02:54:18.359Z,5.80
2018-10-02T02:57:30.239Z,5.80
2018-10-02T03:00:41.978Z,5.70
2018-10-02T03:03:52.984Z,5.70
2018-10-02T03:07:05.406Z,5.70
2018-10-02T03:10:16.853Z,5.70
2018-10-02T03:13:28.836Z,5.70
2018-10-02T03:16:40.292Z,5.70
2018-10-02T03:19:51.422Z,5.70
2018-10-02T03:23:04.298Z,5.80
2018-10-02T03:26:17.446Z,5.70
2018-10-02T03:29:29.449Z,5.70
2018-10-02T03:32:40.813Z,5.60
2018-10-02T03:35:52.377Z,5.80
2018-10-02T03:39:04.382Z,5.80
2018-10-02T03:42:15.751Z,5.80
2018-10-02T03:45:27.591Z,5.70
2018-10-02T03:48:38.804Z,5.70
2018-10-02T03:51:50.684Z,5.70
2018-10-02T03:55:02.366Z,5.70
2018-10-02T03:58:14.300Z,5.80
2018-10-02T04:01:26.291Z,5.70
2018-10-02T04:04:38.130Z,5.70
2018-10-02T04:07:49.079Z,5.70
2018-10-02T04:11:00.199Z,5.70
2018-10-02T04:14:12.319Z,5.70
2018-10-02T04:17:23.851Z,5.70
2018-10-02T04:20:35.899Z,5.70
2018-10-02T04:23:48.273Z,5.70
2018-10-02T04:26:59.387Z,5.70
2018-10-02T04:30:10.487Z,5.70
2018-10-02T04:33:22.226Z,5.80
2018-10-02T04:36:35.370Z,5.80
2018-10-02T04:39:47.349Z,5.80
2018-10-02T04:42:58.634Z,5.80
2018-10-02T04:46:10.339Z,5.70
2018-10-02T04:49:22.731Z,5.70
2018-10-02T04:52:34.403Z,5.70
2018-10-02T04:55:46.262Z,5.70
2018-10-02T04:58:58.237Z,5.60
2018-10-02T05:02:09.970Z,5.60
2018-10-02T05:05:21.907Z,5.60
2018-10-02T05:08:33.037Z,5.50
2018-10-02T05:11:47.353Z,5.50
2018-10-02T05:15:08.528Z,5.50
2018-10-02T05:18:19.581Z,5.40
2018-10-02T05:21:30.749Z,5.40
2018-10-02T05:24:41.745Z,5.50
2018-10-02T05:27:52.985Z,5.60
2018-10-02T05:31:04.462Z,5.60
2018-10-02T05:34:16.027Z,5.50
2018-10-02T05:37:27.762Z,5.50
2018-10-02T05:40:39.340Z,5.60
2018-10-02T05:43:50.473Z,5.50
2018-10-02T05:47:01.493Z,5.50
2018-10-02T05:50:13.331Z,5.50
2018-10-02T05:53:26.042Z,5.50
2018-10-02T05:56:37.951Z,5.60
2018-10-02T05:59:49.762Z,5.60
2018-10-02T06:03:02.081Z,5.60
2018-10-02T06:06:13.484Z,5.60
2018-10-02T06:09:24.526Z,5.60
2018-10-02T06:12:35.535Z,5.70
2018-10-02T06:15:47.740Z,5.70
2018-10-02T06:18:59.877Z,5.70
2018-10-02T06:22:11.352Z,5.80
2018-10-02T06:25:23.685Z,5.80
2018-10-02T06:28:35.260Z,5.70
2018-10-02T06:31:47.153Z,5.70
2018-10-02T06:34:58.668Z,5.70
2018-10-02T06:38:10.058Z,5.70
2018-10-02T06:41:22.085Z,5.80
2018-10-02T06:44:33.886Z,5.80
2018-10-02T06:47:45.786Z,5.80
2018-10-02T06:50:57.286Z,5.80
2018-10-02T06:54:08.927Z,5.80
2018-10-02T06:57:20.920Z,5.80
2018-10-02T07:00:32.718Z,5.80
2018-10-02T07:03:43.951Z,5.90
2018-10-02T07:06:56.246Z,6.00
2018-10-02T07:10:09.102Z,5.90
2018-10-02T07:13:20.696Z,6.00
2018-10-02T07:16:35.025Z,6.10
2018-10-02T07:19:46.438Z,6.40
2018-10-02T07:22:57.533Z,6.60
2018-10-02T07:26:09.588Z,6.80
2018-10-02T07:29:21.315Z,6.90
2018-10-02T07:32:33.019Z,7.00
2018-10-02T07:35:44.793Z,7.00
2018-10-02T07:38:56.944Z,7.10
2018-10-02T07:42:08.829Z,7.20
2018-10-02T07:45:21.873Z,7.30
2018-10-02T07:48:33.847Z,7.50
2018-10-02T07:51:45.679Z,7.60
2018-10-02T07:54:56.676Z,7.60
2018-10-02T07:58:08.568Z,7.90
2018-10-02T08:01:19.800Z,7.80
2018-10-02T08:04:31.730Z,7.80
2018-10-02T08:07:44.379Z,7.80
2018-10-02T08:10:56.672Z,8.00
2018-10-02T08:14:23.875Z,7.80
2018-10-02T08:17:52.028Z,7.90
2018-10-02T08:21:23.136Z,7.80
2018-10-02T08:24:36.240Z,7.70
2018-10-02T08:27:49.951Z,7.90
2018-10-02T08:31:02.322Z,7.90
2018-10-02T08:34:14.733Z,8.00
2018-10-02T08:37:26.363Z,8.10
2018-10-02T08:40:37.901Z,8.30
2018-10-02T08:43:49.075Z,8.40
2018-10-02T08:47:01.210Z,8.40
2018-10-02T08:50:14.078Z,8.30
2018-10-02T08:53:25.085Z,8.50
2018-10-02T08:56:38.756Z,8.50
2018-10-02T08:59:50.531Z,8.50
2018-10-02T09:03:03.656Z,8.60
2018-10-02T09:06:15.378Z,8.80
2018-10-02T09:09:27.622Z,8.80
2018-10-02T09:12:42.572Z,8.90
2018-10-02T09:15:55.435Z,8.80
2018-10-02T09:19:08.644Z,9.00
2018-10-02T09:22:19.696Z,8.90
2018-10-02T09:25:31.593Z,8.70
2018-10-02T09:28:42.798Z,8.90
2018-10-02T09:32:00.260Z,9.10
2018-10-02T09:35:17.847Z,9.10
2018-10-02T09:38:34.927Z,9.20
2018-10-02T09:41:51.877Z,9.20
2018-10-02T09:45:03.914Z,9.20
2018-10-02T09:48:16.943Z,9.20
2018-10-02T09:51:28.540Z,9.20
2018-10-02T09:54:40.536Z,9.20
2018-10-02T09:57:53.466Z,9.40
2018-10-02T10:01:05.858Z,9.40
2018-10-02T10:04:18.088Z,9.40
2018-10-02T10:07:29.993Z,9.30
2018-10-02T10:10:41.780Z,9.40
2018-10-02T10:17:57.492Z,9.50
2018-10-02T10:21:10.916Z,9.30
2018-10-02T10:24:22.451Z,9.40
2018-10-02T10:27:33.496Z,9.30
2018-10-02T10:30:44.646Z,9.30
2018-10-02T10:33:57.352Z,9.20
2018-10-02T10:37:08.961Z,9.00
2018-10-02T10:40:20.321Z,9.10
2018-10-02T10:43:31.922Z,9.10
2018-10-02T10:46:43.013Z,9.00
2018-10-02T10:49:55.154Z,8.90
2018-10-02T10:53:07.064Z,8.90
2018-10-02T10:56:19.337Z,9.00
2018-10-02T10:59:30.995Z,8.90
2018-10-02T11:02:43.337Z,8.80
2018-10-02T11:05:55.221Z,8.70
2018-10-02T11:09:10.051Z,8.90
2018-10-02T11:12:21.217Z,8.90
2018-10-02T11:15:33.821Z,8.80
2018-10-02T11:18:45.686Z,8.70
2018-10-02T11:21:58.512Z,8.50
2018-10-02T11:25:10.166Z,8.50
2018-10-02T11:28:21.817Z,8.50
2018-10-02T11:31:32.852Z,8.30
2018-10-02T11:34:44.239Z,8.40
2018-10-02T11:37:56.565Z,8.30
2018-10-02T11:41:08.847Z,8.30
2018-10-02T11:44:20.199Z,8.40
2018-10-02T11:47:32.247Z,8.40
2018-10-02T11:50:44.059Z,8.40
2018-10-02T11:53:55.285Z,8.30
2018-10-02T11:57:07.425Z,8.20
2018-10-02T12:00:19.092Z,8.00
2018-10-02T12:03:30.213Z,8.10
2018-10-02T12:06:42.647Z,7.90
2018-10-02T12:09:54.469Z,7.90
2018-10-02T12:13:06.503Z,7.90
2018-10-02T12:16:18.345Z,8.00
2018-10-02T12:19:30.289Z,8.00
2018-10-02T12:22:41.840Z,8.10
2018-10-02T12:25:53.856Z,8.20
2018-10-02T12:29:05.883Z,8.10
2018-10-02T12:32:17.845Z,8.10
2018-10-02T12:35:29.608Z,8.00
2018-10-02T12:38:41.281Z,8.10
2018-10-02T12:41:53.521Z,8.20
2018-10-02T12:45:06.510Z,8.20
2018-10-02T12:48:20.258Z,8.10
2018-10-02T12:51:34.373Z,8.20
2018-10-02T12:54:46.319Z,8.20
2018-10-02T12:57:58.381Z,8.20
2018-10-02T13:01:12.204Z,8.20
2018-10-02T13:04:26.680Z,8.20
2018-10-02T13:07:41.233Z,8.10
2018-10-02T13:10:53.605Z,8.10
2018-10-02T13:14:06.460Z,8.00
2018-10-02T13:17:18.202Z,8.00
2018-10-02T13:20:29.832Z,8.00
2018-10-02T13:23:42.015Z,8.00
2018-10-02T13:26:53.738Z,8.00
2018-10-02T13:30:05.850Z,7.90
2018-10-02T13:33:17.418Z,7.80
2018-10-02T13:36:28.553Z,7.70
2018-10-02T13:39:40.029Z,7.70
2018-10-02T13:42:51.331Z,7.80
2018-10-02T13:46:03.007Z,7.60
2018-10-02T13:49:14.904Z,7.60
2018-10-02T13:52:25.933Z,7.60
2018-10-02T13:55:36.912Z,7.70
2018-10-02T13:58:48.450Z,7.70
2018-10-02T14:02:00.098Z,7.70
2018-10-02T14:05:11.811Z,7.70
2018-10-02T14:08:23.113Z,7.70
2018-10-02T14:11:35.113Z,7.80
2018-10-02T14:14:46.221Z,7.80
2018-10-02T14:17:57.287Z,7.70
2018-10-02T14:21:08.974Z,7.70
2018-10-02T14:24:20.412Z,7.70
2018-10-02T14:27:32.003Z,7.70
2018-10-02T14:30:43.637Z,7.50
2018-10-02T14:33:55.528Z,7.60
2018-10-02T14:37:07.412Z,7.60
2018-10-02T14:40:19.533Z,7.60
2018-10-02T14:43:31.488Z,7.50
2018-10-02T14:46:43.830Z,7.50
2018-10-02T14:49:55.616Z,7.50
2018-10-02T14:53:07.792Z,7.50
2018-10-02T14:56:19.862Z,7.50
2018-10-02T14:59:31.904Z,7.50
2018-10-02T15:02:44.586Z,7.50
2018-10-02T15:05:57.714Z,7.60
2018-10-02T15:09:09.506Z,7.60
2018-10-02T15:12:20.698Z,7.60
2018-10-02T15:15:32.817Z,7.70
2018-10-02T15:18:45.246Z,7.70
2018-10-02T15:21:57.686Z,7.70
2018-10-02T15:25:09.491Z,7.70
2018-10-02T15:28:21.093Z,7.70
2018-10-02T15:31:33.211Z,7.70
2018-10-02T15:34:45.413Z,7.70
2018-10-02T15:37:57.263Z,7.70
2018-10-02T15:41:08.722Z,7.70
2018-10-02T15:44:20.730Z,7.70
2018-10-02T15:47:31.829Z,7.60
2018-10-02T15:50:44.912Z,7.70
2018-10-02T15:53:56.738Z,7.70
2018-10-02T15:57:08.620Z,7.70
2018-10-02T16:00:20.035Z,7.70
2018-10-02T16:03:32.018Z,7.70
2018-10-02T16:06:44.011Z,7.70
2018-10-02T16:09:55.226Z,7.70
2018-10-02T16:13:07.217Z,7.80
2018-10-02T16:16:19.493Z,7.70
2018-10-02T16:19:31.625Z,7.70
2018-10-02T16:22:43.024Z,7.70
2018-10-02T16:25:55.767Z,7.70
2018-10-02T16:29:07.395Z,7.70
2018-10-02T16:32:19.337Z,7.70
2018-10-02T16:35:31.175Z,7.70
2018-10-02T16:38:42.907Z,7.70
2018-10-02T16:41:55.366Z,7.80
2018-10-02T16:45:06.700Z,7.80
2018-10-02T16:48:18.774Z,7.80
2018-10-02T16:51:30.210Z,7.80
2018-10-02T16:54:43.722Z,7.80
2018-10-02T16:57:55.739Z,7.80
2018-10-02T17:01:07.654Z,7.80
2018-10-02T17:04:19.986Z,7.70
2018-10-02T17:07:31.644Z,7.60
2018-10-02T17:10:43.722Z,7.50
2018-10-02T17:13:55.725Z,7.50
2018-10-02T17:17:07.484Z,7.40
2018-10-02T17:20:19.528Z,7.40
2018-10-02T17:23:31.298Z,7.40
2018-10-02T17:26:43.172Z,7.40
2018-10-02T17:29:54.502Z,7.40
2018-10-02T17:33:05.639Z,7.50
2018-10-02T17:36:17.450Z,7.50
2018-10-02T17:39:29.221Z,7.50
2018-10-02T17:42:41.438Z,7.50
2018-10-02T17:45:53.330Z,7.60
2018-10-02T17:49:05.263Z,7.50
2018-10-02T17:52:16.630Z,7.50
2018-10-02T17:55:28.474Z,7.40
2018-10-02T17:58:40.575Z,7.40
2018-10-02T18:01:52.461Z,7.30
2018-10-02T18:05:04.403Z,7.40
2018-10-02T18:08:16.172Z,7.40
2018-10-02T18:11:28.282Z,7.40
2018-10-02T18:14:40.794Z,7.40
2018-10-02T18:17:52.129Z,7.30
2018-10-02T18:21:03.762Z,7.30
2018-10-02T18:24:15.587Z,7.30
2018-10-02T18:27:29.209Z,7.30
2018-10-02T18:30:40.997Z,7.30
2018-10-02T18:33:53.031Z,7.40
2018-10-02T18:37:06.504Z,7.40
2018-10-02T18:40:18.110Z,7.40
2018-10-02T18:43:29.901Z,7.40
2018-10-02T18:46:41.071Z,7.40
2018-10-02T18:49:52.158Z,7.50
2018-10-02T18:53:04.258Z,7.60
2018-10-02T18:56:16.352Z,7.60
2018-10-02T18:59:28.461Z,7.60
2018-10-02T19:02:39.997Z,7.70
2018-10-02T19:05:52.102Z,7.70
2018-10-02T19:09:10.882Z,7.70
2018-10-02T19:12:23.048Z,7.70
2018-10-02T19:15:39.893Z,7.80
2018-10-02T19:18:51.996Z,7.80
2018-10-02T19:22:03.960Z,7.80
2018-10-02T19:25:20.794Z,7.80
2018-10-02T19:28:32.689Z,7.90
2018-10-02T19:31:49.542Z,7.90
2018-10-02T19:35:01.302Z,7.90
2018-10-02T19:38:17.648Z,8.00
2018-10-02T19:41:30.056Z,8.00
2018-10-02T19:44:41.207Z,8.00
2018-10-02T19:47:52.905Z,8.00
2018-10-02T19:51:10.334Z,8.00
2018-10-02T19:54:22.983Z,8.10
2018-10-02T19:57:34.264Z,8.10
2018-10-02T20:00:45.501Z,8.10
2018-10-02T20:03:57.430Z,8.10
2018-10-02T20:07:09.667Z,8.10
2018-10-02T20:10:21.604Z,8.20
2018-10-02T20:13:33.477Z,8.20
2018-10-02T20:16:45.311Z,8.20
2018-10-02T20:19:56.641Z,8.20
2018-10-02T20:23:08.334Z,8.20
2018-10-02T20:26:19.451Z,8.20
2018-10-02T20:29:31.054Z,8.20
2018-10-02T20:32:42.472Z,8.20
2018-10-02T20:35:54.329Z,8.20
2018-10-02T20:39:08.585Z,8.20
2018-10-02T20:42:20.050Z,8.20
2018-10-02T20:45:32.114Z,8.30
2018-10-02T20:48:43.228Z,8.30
2018-10-02T20:51:54.427Z,8.30
2018-10-02T20:55:20.070Z,8.30
2018-10-02T20:58:32.345Z,8.30
2018-10-02T21:01:44.479Z,8.30
2018-10-02T21:04:56.150Z,8.30
2018-10-02T21:08:08.337Z,8.30
2018-10-02T21:11:20.025Z,8.40
2018-10-02T21:14:32.023Z,8.40
2018-10-02T21:17:45.602Z,8.40
2018-10-02T21:20:57.331Z,8.40
2018-10-02T21:24:09.025Z,8.40
2018-10-02T21:27:22.288Z,8.40
2018-10-02T21:30:34.754Z,8.40
2018-10-02T21:33:47.354Z,8.40
2018-10-02T21:36:59.335Z,8.40
2018-10-02T21:40:11.172Z,8.40
2018-10-02T21:43:22.685Z,8.40
2018-10-02T21:46:34.671Z,8.40
2018-10-02T21:49:46.397Z,8.40
2018-10-02T21:52:57.801Z,8.50
2018-10-02T21:56:08.949Z,8.50
2018-10-02T21:59:20.802Z,8.50
2018-10-02T22:02:32.484Z,8.50
2018-10-02T22:05:44.450Z,8.50
2018-10-02T22:08:55.747Z,8.50
2018-10-02T22:12:07.761Z,8.50
2018-10-02T22:15:19.606Z,8.50
2018-10-02T22:18:31.365Z,8.50
2018-10-02T22:21:42.439Z,8.50
2018-10-02T22:24:53.500Z,8.60
2018-10-02T22:28:05.355Z,8.60
2018-10-02T22:31:16.609Z,8.60
2018-10-02T22:34:27.705Z,8.60
2018-10-02T22:37:39.666Z,8.60
2018-10-02T22:40:50.863Z,8.60
2018-10-02T22:44:02.048Z,8.60
2018-10-02T22:47:13.276Z,8.70
2018-10-02T22:50:24.292Z,8.70
2018-10-02T22:53:35.712Z,8.60
2018-10-02T22:56:47.311Z,8.60
2018-10-02T22:59:58.649Z,8.60
2018-10-02T23:03:09.763Z,8.50
2018-10-02T23:06:21.190Z,8.60
2018-10-02T23:09:33.151Z,8.60
2018-10-02T23:12:44.962Z,8.60
2018-10-02T23:15:56.915Z,8.60
2018-10-02T23:19:08.851Z,8.60
2018-10-02T23:22:20.875Z,8.60
2018-10-02T23:25:31.937Z,8.60
2018-10-02T23:28:43.934Z,8.60
2018-10-02T23:31:55.977Z,8.60
2018-10-02T23:35:07.767Z,8.60
2018-10-02T23:38:19.680Z,8.60
2018-10-02T23:41:31.612Z,8.60
2018-10-02T23:44:43.370Z,8.50
2018-10-02T23:47:54.726Z,8.50
2018-10-02T23:51:06.793Z,8.50
2018-10-02T23:54:18.290Z,8.50
2018-10-02T23:57:29.616Z,8.40
